Park Falls, Wisconsin
Current Conditions -  °F | °C
As of 11:35 AM on Saturday 25 Oct 2014 (Local Time) from KPBH Reporting Station
Clear Clear  
Wind Chill: 54°   Ceiling: Unl
Heat Index: 54°   Visibility: 10mi
Dew Point: 31°   Wind: 15mph
Humidity: 42%   Direction: 310°NW
Pressure: 29.91"   Gusts: 26mph
Location:  45.93°N, 90.44°W
Report Text: KPBH 251635Z AUTO 31013G23KT 10SM CLR 12/00 A2991 RMK AO2 T01211005
Loading
Personal Weather Stations






























Interactive Weather Map
Tropical Storm Tracking
New forecast layout! Learn more

10-Day Weather Forecast

Advertisements
Track Severe Weather on mobile